createdAt,value
2022-12-11T00:02:04.587Z,-0.18
2022-12-11T00:04:32.330Z,-0.17
2022-12-11T00:06:59.044Z,-0.32
2022-12-11T00:09:26.156Z,-0.29
2022-12-11T00:11:52.847Z,-0.26
2022-12-11T00:14:19.676Z,-0.27
2022-12-11T00:16:48.245Z,-0.28
2022-12-11T00:19:15.298Z,-0.20
2022-12-11T00:21:42.403Z,-0.18
2022-12-11T00:24:09.093Z,-0.02
2022-12-11T00:26:35.825Z,0.37
2022-12-11T00:29:02.605Z,1.01
2022-12-11T00:31:29.505Z,0.95
2022-12-11T00:33:56.282Z,0.89
2022-12-11T00:36:25.933Z,0.86
2022-12-11T00:38:53.941Z,0.78
2022-12-11T00:41:20.954Z,0.72
2022-12-11T00:43:47.837Z,0.72
2022-12-11T00:46:14.688Z,0.69
2022-12-11T00:48:41.407Z,0.66
2022-12-11T00:51:08.201Z,0.73
2022-12-11T00:53:34.887Z,0.74
2022-12-11T00:56:01.662Z,0.73
2022-12-11T00:58:28.499Z,0.72
2022-12-11T01:00:55.606Z,0.69
2022-12-11T01:03:22.261Z,0.65
2022-12-11T01:05:54.194Z,0.65
2022-12-11T01:08:21.414Z,0.71
2022-12-11T01:10:48.305Z,0.70
2022-12-11T01:13:15.177Z,0.62
2022-12-11T01:15:44.770Z,0.71
2022-12-11T01:18:13.351Z,0.78
2022-12-11T01:20:43.178Z,0.81
2022-12-11T01:23:13.132Z,0.62
2022-12-11T01:25:40.366Z,0.44
2022-12-11T01:28:07.472Z,0.35
2022-12-11T01:30:34.508Z,0.24
2022-12-11T01:33:01.698Z,0.25
2022-12-11T01:35:28.992Z,0.37
2022-12-11T01:37:55.823Z,0.47
2022-12-11T01:40:23.063Z,0.30
2022-12-11T01:42:49.973Z,0.36
2022-12-11T01:45:26.743Z,0.46
2022-12-11T01:48:00.695Z,0.46
2022-12-11T01:50:29.171Z,0.40
2022-12-11T01:52:56.053Z,0.37
2022-12-11T01:55:23.372Z,0.29
2022-12-11T01:57:52.776Z,0.27
2022-12-11T02:00:20.550Z,0.22
2022-12-11T02:02:47.646Z,0.19
2022-12-11T02:05:14.480Z,0.18
2022-12-11T02:07:48.679Z,0.26
2022-12-11T02:10:15.688Z,0.35
2022-12-11T02:12:45.371Z,0.38
2022-12-11T02:15:21.175Z,0.39
2022-12-11T02:17:54.589Z,0.29
2022-12-11T02:20:28.206Z,0.21
2022-12-11T02:23:15.033Z,0.19
2022-12-11T02:26:07.593Z,0.27
2022-12-11T02:28:47.131Z,0.24
2022-12-11T02:31:29.889Z,0.26
2022-12-11T02:34:17.523Z,0.21
2022-12-11T02:36:49.390Z,0.11
2022-12-11T02:39:17.460Z,0.16
2022-12-11T02:41:49.112Z,0.15
2022-12-11T02:44:21.113Z,0.09
2022-12-11T02:46:47.958Z,0.16
2022-12-11T02:49:16.403Z,0.14
2022-12-11T02:51:44.345Z,0.21
2022-12-11T02:54:17.826Z,0.25
2022-12-11T02:56:53.582Z,0.23
2022-12-11T02:59:36.375Z,0.11
2022-12-11T03:02:04.831Z,-0.03
2022-12-11T03:04:33.671Z,0.04
2022-12-11T03:07:12.286Z,0.04
2022-12-11T03:09:45.489Z,-0.02
2022-12-11T03:12:16.718Z,0.01
2022-12-11T03:14:44.254Z,0.01
2022-12-11T03:17:21.542Z,-0.01
2022-12-11T03:20:06.901Z,-0.03
2022-12-11T03:22:39.042Z,0.03
2022-12-11T03:25:23.120Z,0.01
2022-12-11T03:27:55.848Z,0.02
2022-12-11T03:30:25.063Z,0.05
2022-12-11T03:32:59.467Z,-0.06
2022-12-11T03:35:38.777Z,0.01
2022-12-11T03:38:13.950Z,0.00
2022-12-11T03:40:44.407Z,-0.04
2022-12-11T03:43:11.895Z,-0.12
2022-12-11T03:45:41.604Z,-0.14
2022-12-11T03:48:10.363Z,-0.09
2022-12-11T03:50:37.814Z,-0.11
2022-12-11T03:53:05.534Z,-0.15
2022-12-11T03:55:33.474Z,-0.15
2022-12-11T03:58:00.277Z,-0.19
2022-12-11T04:00:27.625Z,-0.18
2022-12-11T04:03:13.949Z,-0.11
2022-12-11T04:05:52.491Z,-0.12
2022-12-11T04:08:21.689Z,-0.18
2022-12-11T04:10:49.150Z,-0.17
2022-12-11T04:13:15.827Z,-0.15
2022-12-11T04:15:42.588Z,-0.09
2022-12-11T04:18:28.675Z,-0.11
2022-12-11T04:21:14.923Z,-0.19
2022-12-11T04:24:00.080Z,-0.19
2022-12-11T04:26:27.233Z,-0.22
2022-12-11T04:28:53.816Z,-0.20
2022-12-11T04:31:22.436Z,-0.20
2022-12-11T04:33:49.530Z,-0.19
2022-12-11T04:36:16.388Z,-0.16
2022-12-11T04:38:43.075Z,-0.09
2022-12-11T04:41:15.593Z,-0.07
2022-12-11T04:43:45.208Z,-0.04
2022-12-11T04:46:23.163Z,-0.06
2022-12-11T04:48:57.007Z,0.00
2022-12-11T04:51:24.587Z,-0.06
2022-12-11T04:53:51.282Z,-0.04
2022-12-11T04:56:18.053Z,-0.01
2022-12-11T04:58:45.578Z,0.03
2022-12-11T05:01:15.708Z,0.07
2022-12-11T05:03:43.020Z,0.10
2022-12-11T05:06:10.980Z,0.08
2022-12-11T05:08:40.380Z,-0.03
2022-12-11T05:11:09.841Z,-0.05
2022-12-11T05:13:36.651Z,-0.09
2022-12-11T05:16:05.751Z,-0.14
2022-12-11T05:18:32.651Z,-0.23
2022-12-11T05:21:05.091Z,-0.27
2022-12-11T05:23:32.423Z,-0.26
2022-12-11T05:26:00.302Z,-0.23
2022-12-11T05:28:30.099Z,-0.18
2022-12-11T05:31:01.924Z,-0.14
2022-12-11T05:33:29.921Z,-0.10
2022-12-11T05:35:56.800Z,-0.03
2022-12-11T05:38:23.992Z,-0.01
2022-12-11T05:40:58.042Z,0.02
2022-12-11T05:43:25.358Z,0.02
2022-12-11T05:45:51.890Z,-0.01
2022-12-11T05:48:18.606Z,-0.01
2022-12-11T05:50:45.795Z,-0.01
2022-12-11T05:53:12.471Z,-0.04
2022-12-11T05:55:39.181Z,-0.06
2022-12-11T05:58:05.874Z,-0.07
2022-12-11T06:00:36.059Z,-0.08
2022-12-11T06:03:03.205Z,-0.08
2022-12-11T06:05:30.039Z,-0.13
2022-12-11T06:07:56.764Z,-0.14
2022-12-11T06:10:23.562Z,-0.12
2022-12-11T06:12:50.225Z,-0.16
2022-12-11T06:15:17.023Z,-0.15
2022-12-11T06:17:43.752Z,-0.17
2022-12-11T06:20:10.819Z,-0.14
2022-12-11T06:22:37.514Z,-0.17
2022-12-11T06:25:04.633Z,-0.09
2022-12-11T06:27:31.246Z,-0.07
2022-12-11T06:29:57.928Z,-0.06
2022-12-11T06:32:24.641Z,-0.09
2022-12-11T06:34:51.398Z,-0.07
2022-12-11T06:37:18.089Z,-0.09
2022-12-11T06:39:44.824Z,-0.14
2022-12-11T06:42:11.639Z,-0.28
2022-12-11T06:44:38.336Z,-0.37
2022-12-11T06:47:05.459Z,-0.37
2022-12-11T06:49:32.167Z,-0.19
2022-12-11T06:51:58.899Z,-0.19
2022-12-11T06:54:28.705Z,-0.14
2022-12-11T06:56:55.510Z,-0.12
2022-12-11T06:59:22.304Z,-0.08
2022-12-11T07:01:49.113Z,-0.09
2022-12-11T07:04:15.847Z,-0.04
2022-12-11T07:06:42.603Z,-0.02
2022-12-11T07:09:10.074Z,0.00
2022-12-11T07:11:36.909Z,-0.03
2022-12-11T07:14:03.605Z,0.08
2022-12-11T07:16:30.415Z,0.11
2022-12-11T07:18:57.148Z,0.14
2022-12-11T07:21:24.033Z,0.17
2022-12-11T07:23:51.078Z,0.18
2022-12-11T07:26:21.711Z,0.19
2022-12-11T07:28:50.438Z,0.13
2022-12-11T07:31:25.899Z,0.18
2022-12-11T07:33:58.468Z,0.17
2022-12-11T07:36:26.945Z,0.19
2022-12-11T07:38:56.186Z,0.21
2022-12-11T07:41:23.350Z,0.26
2022-12-11T07:43:54.220Z,0.33
2022-12-11T07:46:24.272Z,0.32
2022-12-11T07:48:54.030Z,0.40
2022-12-11T07:51:26.597Z,0.42
2022-12-11T07:53:56.653Z,0.46
2022-12-11T07:56:24.239Z,0.48
2022-12-11T07:58:51.451Z,0.47
2022-12-11T08:01:22.641Z,0.53
2022-12-11T08:03:51.374Z,0.59
2022-12-11T08:06:22.069Z,0.61
2022-12-11T08:08:49.588Z,0.64
2022-12-11T08:11:17.516Z,0.70
2022-12-11T08:13:45.398Z,0.72
2022-12-11T08:16:15.123Z,0.84
2022-12-11T08:18:43.296Z,0.92
2022-12-11T08:21:15.585Z,1.01
2022-12-11T08:23:42.789Z,1.09
2022-12-11T08:26:11.077Z,1.14
2022-12-11T08:28:38.023Z,1.12
2022-12-11T08:31:06.989Z,1.14
2022-12-11T08:33:34.532Z,1.14
2022-12-11T08:36:08.732Z,1.18
2022-12-11T08:38:36.280Z,1.15
2022-12-11T08:41:32.408Z,1.13
2022-12-11T08:44:00.451Z,1.07
2022-12-11T08:46:29.868Z,1.19
2022-12-11T08:48:57.832Z,1.21
2022-12-11T08:51:27.440Z,1.27
2022-12-11T08:53:59.695Z,1.33
2022-12-11T08:56:27.982Z,1.43
2022-12-11T08:58:55.300Z,1.55
2022-12-11T09:01:25.611Z,1.63
2022-12-11T09:03:53.693Z,1.67
2022-12-11T09:06:23.407Z,1.74
2022-12-11T09:08:52.865Z,1.78
2022-12-11T09:11:25.878Z,1.94
2022-12-11T09:13:53.539Z,2.11
2022-12-11T09:16:24.081Z,2.16
2022-12-11T09:18:52.078Z,2.24
2022-12-11T09:21:21.938Z,2.21
2022-12-11T09:23:49.150Z,2.36
2022-12-11T09:26:17.872Z,2.50
2022-12-11T09:28:46.990Z,2.60
2022-12-11T09:31:25.355Z,2.63
2022-12-11T09:33:55.157Z,2.58
2022-12-11T09:36:22.646Z,2.61
2022-12-11T09:38:49.560Z,2.66
2022-12-11T09:41:22.075Z,2.66
2022-12-11T09:44:16.594Z,2.61
2022-12-11T09:46:45.180Z,2.69
2022-12-11T09:49:24.761Z,2.59
2022-12-11T09:52:17.611Z,2.71
2022-12-11T09:54:50.170Z,2.80
2022-12-11T09:57:25.889Z,2.88
2022-12-11T10:00:09.677Z,3.00
2022-12-11T10:03:01.383Z,3.08
2022-12-11T10:06:10.264Z,3.16
2022-12-11T10:08:40.209Z,3.26
2022-12-11T10:12:05.099Z,3.29
2022-12-11T10:14:56.770Z,3.32
2022-12-11T10:17:30.369Z,3.31
2022-12-11T10:20:01.606Z,3.38
2022-12-11T10:22:32.825Z,3.35
2022-12-11T10:25:11.197Z,3.26
2022-12-11T10:27:41.065Z,3.22
2022-12-11T10:30:15.912Z,3.26
2022-12-11T10:33:20.812Z,3.33
2022-12-11T10:35:54.855Z,3.38
2022-12-11T10:38:33.659Z,3.38
2022-12-11T10:41:40.824Z,3.27
2022-12-11T10:44:25.632Z,3.17
2022-12-11T10:47:06.089Z,3.24
2022-12-11T10:49:35.268Z,3.33
2022-12-11T10:52:09.355Z,3.30
2022-12-11T10:54:38.676Z,3.22
2022-12-11T10:57:08.558Z,3.19
2022-12-11T10:59:48.068Z,3.24
2022-12-11T11:02:35.947Z,3.19
2022-12-11T11:05:15.695Z,3.15
2022-12-11T11:07:42.542Z,3.04
2022-12-11T11:10:12.001Z,2.97
2022-12-11T11:12:44.683Z,3.00
2022-12-11T11:15:13.427Z,3.04
2022-12-11T11:17:55.369Z,3.03
2022-12-11T11:20:29.285Z,3.01
2022-12-11T11:23:09.609Z,2.95
2022-12-11T11:25:36.377Z,3.04
2022-12-11T11:28:17.742Z,3.08
2022-12-11T11:31:12.273Z,3.06
2022-12-11T11:33:46.807Z,3.26
2022-12-11T11:36:25.742Z,3.49
2022-12-11T11:39:04.242Z,3.67
2022-12-11T11:42:12.175Z,3.59
2022-12-11T11:44:41.907Z,3.69
2022-12-11T11:47:19.795Z,3.58
2022-12-11T11:49:49.197Z,3.57
2022-12-11T11:52:27.101Z,3.41
2022-12-11T11:55:49.097Z,3.27
2022-12-11T11:58:22.925Z,3.17
2022-12-11T12:00:53.168Z,3.13
2022-12-11T12:03:22.802Z,3.10
2022-12-11T12:05:52.931Z,3.11
2022-12-11T12:08:41.861Z,2.99
2022-12-11T12:11:14.550Z,2.94
2022-12-11T12:14:17.655Z,2.84
2022-12-11T12:17:51.909Z,2.84
2022-12-11T12:20:29.007Z,2.88
2022-12-11T12:23:36.442Z,2.84
2022-12-11T12:26:09.654Z,2.75
2022-12-11T12:28:53.918Z,2.71
2022-12-11T12:32:05.112Z,2.66
2022-12-11T12:34:39.510Z,2.67
2022-12-11T12:37:21.079Z,2.70
2022-12-11T12:40:06.281Z,2.71
2022-12-11T12:42:59.375Z,2.67
2022-12-11T12:45:37.218Z,2.67
2022-12-11T12:48:03.786Z,2.64
2022-12-11T12:50:38.670Z,2.65
2022-12-11T12:53:07.752Z,2.67
2022-12-11T12:55:35.912Z,2.69
2022-12-11T12:58:06.387Z,2.69
2022-12-11T13:00:38.883Z,2.66
2022-12-11T13:03:18.428Z,2.77
2022-12-11T13:06:08.608Z,2.81
2022-12-11T13:08:48.677Z,2.86
2022-12-11T13:11:18.238Z,2.94
2022-12-11T13:14:15.695Z,2.98
2022-12-11T13:16:47.243Z,3.03
2022-12-11T13:19:23.332Z,3.06
2022-12-11T13:22:15.607Z,3.09
2022-12-11T13:24:51.655Z,3.08
2022-12-11T13:27:25.839Z,3.09
2022-12-11T13:30:04.199Z,3.07
2022-12-11T13:32:31.495Z,3.09
2022-12-11T13:35:00.241Z,3.09
2022-12-11T13:37:32.034Z,3.09
2022-12-11T13:40:00.766Z,3.11
2022-12-11T13:42:36.815Z,3.11
2022-12-11T13:45:05.304Z,3.10
2022-12-11T13:47:33.111Z,3.10
2022-12-11T13:50:36.645Z,3.06
2022-12-11T13:53:06.948Z,3.05
2022-12-11T13:55:35.859Z,3.03
2022-12-11T13:58:03.664Z,3.01
2022-12-11T14:00:32.887Z,3.01
2022-12-11T14:03:05.402Z,2.96
2022-12-11T14:05:33.828Z,2.95
2022-12-11T14:08:09.032Z,2.94
2022-12-11T14:10:37.129Z,2.94
2022-12-11T14:13:17.844Z,2.86
2022-12-11T14:15:45.559Z,2.84
2022-12-11T14:18:24.943Z,2.64
2022-12-11T14:20:57.901Z,2.69
2022-12-11T14:23:31.228Z,2.59
2022-12-11T14:26:04.043Z,2.47
2022-12-11T14:28:38.548Z,2.34
2022-12-11T14:31:06.608Z,2.22
2022-12-11T14:33:38.245Z,2.09
2022-12-11T14:36:06.274Z,1.94
2022-12-11T14:38:38.134Z,1.98
2022-12-11T14:41:16.868Z,1.99
2022-12-11T14:43:48.326Z,1.95
2022-12-11T14:46:52.112Z,1.61
2022-12-11T14:49:28.856Z,1.81
2022-12-11T14:51:58.471Z,1.77
2022-12-11T14:54:33.960Z,1.71
2022-12-11T14:57:07.571Z,1.64
2022-12-11T14:59:46.038Z,1.50
2022-12-11T15:02:21.847Z,1.42
2022-12-11T15:05:24.235Z,1.23
2022-12-11T15:08:01.594Z,1.16
2022-12-11T15:10:37.230Z,1.07
2022-12-11T15:13:06.669Z,1.03
2022-12-11T15:15:47.447Z,0.99
2022-12-11T15:18:40.729Z,1.03
2022-12-11T15:21:10.999Z,1.04
2022-12-11T15:23:59.155Z,1.00
2022-12-11T15:26:44.176Z,0.88
2022-12-11T15:29:40.505Z,0.80
2022-12-11T15:32:09.947Z,0.72
2022-12-11T15:34:58.583Z,0.64
2022-12-11T15:37:26.571Z,0.49
2022-12-11T15:39:54.786Z,0.47
2022-12-11T15:42:30.420Z,0.46
2022-12-11T15:44:57.650Z,0.46
2022-12-11T15:47:25.355Z,0.43
2022-12-11T15:50:08.303Z,0.39
2022-12-11T15:52:35.124Z,0.40
2022-12-11T15:55:01.876Z,0.46
2022-12-11T15:57:28.574Z,0.43
2022-12-11T15:59:55.534Z,0.42
2022-12-11T16:02:24.383Z,0.29
2022-12-11T16:04:51.222Z,0.24
2022-12-11T16:07:23.834Z,0.18
2022-12-11T16:09:51.188Z,0.11
2022-12-11T16:12:19.252Z,-0.01
2022-12-11T16:14:46.327Z,-0.06
2022-12-11T16:17:14.992Z,-0.15
2022-12-11T16:19:43.242Z,-0.18
2022-12-11T16:22:12.263Z,-0.29
2022-12-11T16:24:39.734Z,-0.39
2022-12-11T16:27:07.797Z,-0.39
2022-12-11T16:29:36.363Z,-0.43
2022-12-11T16:32:03.190Z,-0.51
2022-12-11T16:34:29.950Z,-0.64
2022-12-11T16:37:00.469Z,-0.71
2022-12-11T16:39:27.835Z,-0.79
2022-12-11T16:41:54.519Z,-0.84
2022-12-11T16:44:24.044Z,-0.91
2022-12-11T16:46:51.895Z,-0.91
2022-12-11T16:49:19.376Z,-0.99
2022-12-11T16:51:47.324Z,-0.98
2022-12-11T16:54:14.143Z,-1.05
2022-12-11T16:56:41.076Z,-1.10
2022-12-11T16:59:08.008Z,-1.13
2022-12-11T17:01:34.888Z,-1.18
2022-12-11T17:04:01.721Z,-1.21
2022-12-11T17:06:28.639Z,-1.22
2022-12-11T17:08:56.049Z,-1.28
2022-12-11T17:11:25.134Z,-1.27
2022-12-11T17:13:56.790Z,-1.32
2022-12-11T17:16:26.199Z,-1.29
2022-12-11T17:18:53.583Z,-1.32
2022-12-11T17:21:22.282Z,-1.37
2022-12-11T17:23:49.772Z,-1.34
2022-12-11T17:26:17.199Z,-1.35
2022-12-11T17:28:44.279Z,-1.30
2022-12-11T17:31:17.353Z,-1.31
2022-12-11T17:33:45.684Z,-1.30
2022-12-11T17:36:17.785Z,-1.27
2022-12-11T17:38:44.731Z,-1.24
2022-12-11T17:41:20.067Z,-1.20
2022-12-11T17:43:52.691Z,-1.20
2022-12-11T17:46:20.607Z,-1.18
2022-12-11T17:48:48.427Z,-1.17
2022-12-11T17:51:22.015Z,-1.23
2022-12-11T17:53:48.911Z,-1.28
2022-12-11T17:56:16.546Z,-1.26
2022-12-11T17:58:43.407Z,-1.25
2022-12-11T18:01:13.184Z,-1.33
2022-12-11T18:03:40.841Z,-1.35
2022-12-11T18:06:11.031Z,-1.34
2022-12-11T18:08:38.402Z,-1.34
2022-12-11T18:11:16.493Z,-1.32
2022-12-11T18:13:44.382Z,-1.31
2022-12-11T18:16:14.333Z,-1.21
2022-12-11T18:18:41.316Z,-1.18
2022-12-11T18:21:08.267Z,-1.21
2022-12-11T18:23:35.011Z,-1.19
2022-12-11T18:26:01.779Z,-1.17
2022-12-11T18:28:31.739Z,-1.15
2022-12-11T18:31:03.643Z,-1.11
2022-12-11T18:33:31.382Z,-1.14
2022-12-11T18:35:58.225Z,-1.14
2022-12-11T18:38:24.930Z,-1.16
2022-12-11T18:40:51.686Z,-1.31
2022-12-11T18:43:18.363Z,-1.24
2022-12-11T18:45:46.140Z,-1.23
2022-12-11T18:48:14.248Z,-1.23
2022-12-11T18:50:48.847Z,-1.22
2022-12-11T18:53:16.419Z,-1.31
2022-12-11T18:55:44.879Z,-1.32
2022-12-11T18:58:13.294Z,-1.31
2022-12-11T19:00:41.247Z,-1.32
2022-12-11T19:03:09.476Z,-1.31
2022-12-11T19:05:36.848Z,-1.35
2022-12-11T19:08:04.042Z,-1.38
2022-12-11T19:10:30.604Z,-1.43
2022-12-11T19:12:57.351Z,-1.46
2022-12-11T19:15:24.487Z,-1.46
2022-12-11T19:17:51.217Z,-1.46
2022-12-11T19:20:47.556Z,-1.46
2022-12-11T19:23:05.712Z,-1.47
2022-12-11T19:25:34.606Z,-1.51
2022-12-11T19:28:01.922Z,-1.52
2022-12-11T19:30:29.562Z,-1.54
2022-12-11T19:32:57.625Z,-1.73
2022-12-11T19:35:25.367Z,-1.63
2022-12-11T19:37:53.175Z,-1.58
2022-12-11T19:40:22.496Z,-1.58
2022-12-11T19:42:49.498Z,-1.63
2022-12-11T19:45:16.227Z,-1.65
2022-12-11T19:47:42.963Z,-1.67
2022-12-11T19:50:11.458Z,-1.65
2022-12-11T19:52:44.495Z,-1.67
2022-12-11T19:55:15.568Z,-1.68
2022-12-11T19:57:42.752Z,-1.68
2022-12-11T20:00:10.367Z,-1.72
2022-12-11T20:02:41.654Z,-1.74
2022-12-11T20:05:09.306Z,-1.72
2022-12-11T20:07:37.454Z,-1.78
2022-12-11T20:10:04.571Z,-1.73
2022-12-11T20:12:31.428Z,-1.73
2022-12-11T20:15:00.784Z,-1.79
2022-12-11T20:17:29.820Z,-1.73
2022-12-11T20:19:57.287Z,-1.80
2022-12-11T20:22:24.683Z,-1.78
2022-12-11T20:24:51.570Z,-1.79
2022-12-11T20:27:18.307Z,-1.82
2022-12-11T20:29:45.025Z,-1.85
2022-12-11T20:32:11.807Z,-1.90
2022-12-11T20:34:38.614Z,-1.93
2022-12-11T20:37:05.442Z,-1.95
2022-12-11T20:39:32.166Z,-1.95
2022-12-11T20:41:59.630Z,-1.96
2022-12-11T20:44:26.367Z,-1.95
2022-12-11T20:46:53.749Z,-1.95
2022-12-11T20:49:20.568Z,-1.95
2022-12-11T20:51:47.654Z,-1.92
2022-12-11T20:54:14.486Z,-1.92
2022-12-11T20:56:41.202Z,-1.98
2022-12-11T20:59:08.173Z,-1.90
2022-12-11T21:01:35.168Z,-1.88
2022-12-11T21:04:02.515Z,-1.86
2022-12-11T21:06:36.387Z,-1.86
2022-12-11T21:09:06.686Z,-1.84
2022-12-11T21:11:34.060Z,-1.86
2022-12-11T21:14:00.798Z,-1.85
2022-12-11T21:16:28.451Z,-1.85
2022-12-11T21:18:58.913Z,-1.85
2022-12-11T21:21:26.265Z,-1.87
2022-12-11T21:23:53.058Z,-1.87
2022-12-11T21:26:20.553Z,-1.87
2022-12-11T21:28:47.292Z,-1.87
2022-12-11T21:31:16.551Z,-1.90
2022-12-11T21:33:43.626Z,-1.90
2022-12-11T21:36:12.531Z,-1.93
2022-12-11T21:38:40.575Z,-1.91
2022-12-11T21:41:13.652Z,-1.89
2022-12-11T21:44:03.213Z,-1.89
2022-12-11T21:46:28.313Z,-1.92
2022-12-11T21:48:55.548Z,-1.90
2022-12-11T21:51:35.713Z,-1.88
2022-12-11T21:54:05.355Z,-1.88
2022-12-11T21:56:33.122Z,-1.89
2022-12-11T21:59:01.448Z,-1.96
2022-12-11T22:01:31.457Z,-1.93
2022-12-11T22:03:59.314Z,-1.97
2022-12-11T22:06:26.035Z,-1.99
2022-12-11T22:08:52.874Z,-2.03
2022-12-11T22:11:22.720Z,-2.06
2022-12-11T22:13:49.527Z,-2.11
2022-12-11T22:16:16.342Z,-2.10
2022-12-11T22:18:43.614Z,-2.12
2022-12-11T22:21:10.311Z,-2.16
2022-12-11T22:23:40.763Z,-2.15
2022-12-11T22:26:08.736Z,-2.16
2022-12-11T22:28:35.661Z,-2.19
2022-12-11T22:31:04.635Z,-2.21
2022-12-11T22:33:31.403Z,-2.19
2022-12-11T22:35:59.862Z,-2.17
2022-12-11T22:38:26.823Z,-2.17
2022-12-11T22:40:54.688Z,-2.16
2022-12-11T22:43:21.822Z,-2.16
2022-12-11T22:45:50.380Z,-2.15
2022-12-11T22:48:17.221Z,-2.13
2022-12-11T22:50:44.366Z,-2.14
2022-12-11T22:53:11.700Z,-2.17
2022-12-11T22:55:39.974Z,-2.26
2022-12-11T22:58:07.333Z,-2.13
2022-12-11T23:00:34.309Z,-2.12
2022-12-11T23:03:02.050Z,-2.12
2022-12-11T23:05:29.507Z,-2.15
2022-12-11T23:07:56.201Z,-2.18
2022-12-11T23:10:23.397Z,-2.18
2022-12-11T23:12:50.032Z,-2.15
2022-12-11T23:15:17.371Z,-2.16
2022-12-11T23:17:44.086Z,-2.16
2022-12-11T23:20:11.157Z,-2.17
2022-12-11T23:22:37.943Z,-2.16
2022-12-11T23:25:05.068Z,-2.17
2022-12-11T23:27:31.611Z,-2.20
2022-12-11T23:29:58.364Z,-2.22
2022-12-11T23:32:25.114Z,-2.24
2022-12-11T23:34:51.829Z,-2.16
2022-12-11T23:37:18.535Z,-2.17
2022-12-11T23:39:45.242Z,-2.22
2022-12-11T23:42:11.966Z,-2.19
2022-12-11T23:44:38.692Z,-2.18
2022-12-11T23:47:05.915Z,-2.18
2022-12-11T23:49:32.697Z,-2.16
2022-12-11T23:51:59.521Z,-2.22
2022-12-11T23:54:26.263Z,-2.18
2022-12-11T23:56:52.951Z,-2.17
2022-12-11T23:59:19.745Z,-2.23
